Time;durP1;ratioP1;P1;durP2;ratioP2;P2;SDS_P1;SDS_P2;PMS_P1;PMS_P2;Temp;Humidity;BMP_temperature;BMP_pressure;BME280_temperature;BME280_humidity;BME280_pressure;Samples;Min_cycle;Max_cycle;Signal;HPM_P1;HPM_P2
2023/03/21 00:01:59;;;;;;;4.60;2.42;;;9.60;99.90;;;;;;5073814;28;20422;-75
2023/03/21 00:04:26;;;;;;;7.25;2.40;;;9.60;99.90;;;;;;5071252;28;20403;-75
2023/03/21 00:06:53;;;;;;;6.78;2.60;;;9.60;99.90;;;;;;5061697;28;20923;-75
2023/03/21 00:09:20;;;;;;;5.87;2.53;;;9.60;99.90;;;;;;5080250;28;20809;-75
2023/03/21 00:11:47;;;;;;;9.15;2.58;;;9.70;99.90;;;;;;5074398;28;20411;-75
2023/03/21 00:14:17;;;;;;;6.25;2.65;;;9.60;99.90;;;;;;5070087;28;20404;-75
2023/03/21 00:16:49;;;;;;;4.63;2.72;;;9.60;99.90;;;;;;5070596;28;20902;-75
2023/03/21 00:19:19;;;;;;;5.15;2.50;;;9.60;99.90;;;;;;5072582;28;20459;-75
2023/03/21 00:21:46;;;;;;;9.30;2.75;;;9.70;99.90;;;;;;5076147;28;20446;-75
2023/03/21 00:24:12;;;;;;;6.95;2.90;;;9.70;99.90;;;;;;5071727;28;20452;-75
2023/03/21 00:26:39;;;;;;;6.22;2.92;;;9.70;99.90;;;;;;5099627;28;20426;-75
2023/03/21 00:29:05;;;;;;;6.68;3.03;;;9.70;99.90;;;;;;5075239;28;21187;-75
2023/03/21 00:31:32;;;;;;;5.90;2.95;;;9.70;99.90;;;;;;5069583;28;20491;-75
2023/03/21 00:33:58;;;;;;;6.30;3.00;;;9.70;99.90;;;;;;5068259;28;20407;-75
2023/03/21 00:36:25;;;;;;;6.85;3.13;;;9.80;99.90;;;;;;5069309;28;20407;-75
2023/03/21 00:38:52;;;;;;;5.40;2.90;;;9.80;99.90;;;;;;5093024;28;20422;-75
2023/03/21 00:41:18;;;;;;;6.90;2.80;;;9.70;99.90;;;;;;5063251;28;20407;-75
2023/03/21 00:43:45;;;;;;;7.95;2.90;;;9.70;99.90;;;;;;5107121;27;20510;-75
2023/03/21 00:46:11;;;;;;;7.15;2.80;;;9.70;99.90;;;;;;5074114;28;20407;-75
2023/03/21 00:48:37;;;;;;;6.90;3.00;;;9.70;99.90;;;;;;5073170;28;21122;-75
2023/03/21 00:51:24;;;;;;;7.13;3.33;;;9.80;99.90;;;;;;5080895;28;20476;-75
2023/03/21 00:53:56;;;;;;;5.68;3.10;;;9.80;99.90;;;;;;5060664;28;20454;-75
2023/03/21 00:56:23;;;;;;;5.72;2.97;;;9.80;99.90;;;;;;5075624;28;20470;-75
2023/03/21 00:58:50;;;;;;;7.75;3.40;;;9.80;99.90;;;;;;5102023;27;20502;-75
2023/03/21 01:01:17;;;;;;;5.43;2.80;;;9.80;99.90;;;;;;5053099;28;20472;-76
2023/03/21 01:03:49;;;;;;;5.32;2.88;;;9.80;99.90;;;;;;5092967;27;20488;-75
2023/03/21 01:06:18;;;;;;;7.18;3.30;;;9.80;99.90;;;;;;5074046;28;20455;-75
2023/03/21 01:08:46;;;;;;;7.10;3.13;;;9.90;99.90;;;;;;5069635;28;20411;-75
2023/03/21 01:11:17;;;;;;;6.50;2.95;;;9.90;99.90;;;;;;5079722;28;20405;-75
2023/03/21 01:13:44;;;;;;;8.65;3.15;;;9.90;99.90;;;;;;5077858;28;20400;-75
2023/03/21 01:16:11;;;;;;;5.38;2.97;;;9.80;99.90;;;;;;5065144;28;20400;-75
2023/03/21 01:18:40;;;;;;;6.35;2.70;;;9.80;99.90;;;;;;5070728;28;20786;-75
2023/03/21 01:21:13;;;;;;;6.67;2.83;;;9.70;99.90;;;;;;5074398;28;20412;-75
2023/03/21 01:23:42;;;;;;;5.82;2.78;;;9.70;99.90;;;;;;5074995;28;20510;-75
2023/03/21 01:26:11;;;;;;;8.48;2.92;;;9.80;99.90;;;;;;5075156;28;20423;-75
2023/03/21 01:28:40;;;;;;;7.88;2.90;;;9.80;99.90;;;;;;5076566;28;20776;-75
2023/03/21 01:31:08;;;;;;;5.35;3.10;;;9.80;99.90;;;;;;5077065;28;20514;-75
2023/03/21 01:33:35;;;;;;;7.40;3.35;;;9.80;99.90;;;;;;5079965;28;20940;-74
2023/03/21 01:36:02;;;;;;;9.32;3.40;;;9.70;99.90;;;;;;5076922;28;20413;-75
2023/03/21 01:38:29;;;;;;;6.40;3.10;;;9.80;99.90;;;;;;5074670;28;20428;-75
2023/03/21 01:40:58;;;;;;;7.20;3.10;;;9.80;99.90;;;;;;5072698;28;20465;-75
2023/03/21 01:43:28;;;;;;;7.77;3.20;;;9.80;99.90;;;;;;5070804;28;20500;-75
2023/03/21 01:46:27;;;;;;;8.23;3.17;;;9.80;99.90;;;;;;5059024;28;20406;-76
2023/03/21 01:49:37;;;;;;;6.25;2.90;;;9.80;99.90;;;;;;5077238;28;20419;-75
2023/03/21 01:52:12;;;;;;;7.80;3.05;;;9.80;99.90;;;;;;5048316;28;20416;-76
2023/03/21 01:54:41;;;;;;;6.47;2.80;;;9.80;99.90;;;;;;5089013;28;20463;-75
2023/03/21 01:57:15;;;;;;;7.95;3.17;;;9.80;99.90;;;;;;5074756;28;20458;-75
2023/03/21 01:59:53;;;;;;;7.60;3.03;;;9.80;99.90;;;;;;5076060;28;20502;-75
2023/03/21 02:02:26;;;;;;;6.63;2.80;;;9.80;99.90;;;;;;5059065;28;20538;-75
2023/03/21 02:04:56;;;;;;;4.78;2.70;;;9.80;99.90;;;;;;5073779;28;20412;-75
2023/03/21 02:07:35;;;;;;;5.88;2.70;;;9.70;99.90;;;;;;5061185;28;20415;-75
2023/03/21 02:10:06;;;;;;;5.37;2.90;;;9.70;99.90;;;;;;5073481;28;20790;-75
2023/03/21 02:12:33;;;;;;;5.90;2.67;;;9.80;99.90;;;;;;5073432;28;20479;-75
2023/03/21 02:15:00;;;;;;;7.78;2.67;;;9.80;99.90;;;;;;5072697;28;20883;-75
2023/03/21 02:17:40;;;;;;;7.00;2.75;;;9.80;99.90;;;;;;5070478;28;20412;-75
2023/03/21 02:20:51;;;;;;;6.55;3.05;;;9.70;99.90;;;;;;5073668;28;20401;-75
2023/03/21 02:23:59;;;;;;;7.20;3.13;;;9.70;99.90;;;;;;5075103;28;20469;-75
2023/03/21 02:26:54;;;;;;;5.28;3.10;;;9.80;99.90;;;;;;5073333;28;20831;-75
2023/03/21 02:30:06;;;;;;;5.10;3.00;;;9.80;99.90;;;;;;5101700;27;20443;-75
2023/03/21 02:33:20;;;;;;;5.45;3.10;;;9.80;99.90;;;;;;5073522;28;20421;-75
2023/03/21 02:36:39;;;;;;;6.63;2.97;;;9.80;99.90;;;;;;5060832;28;20413;-75
2023/03/21 02:39:16;;;;;;;6.30;3.20;;;9.80;99.90;;;;;;5059344;28;20448;-75
2023/03/21 02:41:46;;;;;;;7.82;3.15;;;9.80;99.90;;;;;;5078146;28;20420;-75
2023/03/21 02:44:28;;;;;;;6.78;2.83;;;9.80;99.90;;;;;;5076320;28;20414;-75
2023/03/21 02:47:07;;;;;;;7.97;3.17;;;9.80;99.90;;;;;;5076729;28;20419;-75
2023/03/21 02:50:06;;;;;;;5.75;2.90;;;9.80;99.90;;;;;;5071054;28;20475;-76
2023/03/21 02:52:36;;;;;;;5.35;2.97;;;9.80;99.90;;;;;;5073744;28;20510;-75
2023/03/21 02:55:12;;;;;;;6.47;2.90;;;9.80;99.90;;;;;;5075295;28;21005;-75
2023/03/21 02:57:42;;;;;;;4.93;3.10;;;9.70;99.90;;;;;;5071878;28;20417;-75
2023/03/21 03:00:15;;;;;;;5.43;3.00;;;9.70;99.90;;;;;;5075222;28;20475;-75
2023/03/21 03:02:42;;;;;;;4.88;2.85;;;9.70;99.90;;;;;;5072488;28;20418;-75
2023/03/21 03:05:20;;;;;;;6.63;3.05;;;9.60;99.90;;;;;;5052756;28;20409;-76
2023/03/21 03:08:07;;;;;;;6.32;2.90;;;9.60;99.90;;;;;;5072485;28;20428;-75
2023/03/21 03:10:59;;;;;;;6.65;3.03;;;9.50;99.90;;;;;;5069094;28;20478;-75
2023/03/21 03:14:23;;;;;;;5.85;3.15;;;9.40;99.90;;;;;;5069126;28;20413;-75
2023/03/21 03:17:01;;;;;;;4.70;2.88;;;9.40;99.90;;;;;;5069673;28;20413;-75
2023/03/21 03:19:33;;;;;;;8.13;3.28;;;9.30;99.90;;;;;;5074934;28;20457;-75
2023/03/21 03:22:15;;;;;;;4.13;3.08;;;9.40;99.90;;;;;;5072238;28;20410;-76
2023/03/21 03:25:09;;;;;;;6.40;3.37;;;9.40;99.90;;;;;;5071559;28;20500;-75
2023/03/21 03:27:42;;;;;;;5.13;3.28;;;9.30;99.90;;;;;;5066743;28;20403;-76
2023/03/21 03:30:11;;;;;;;6.78;2.63;;;9.30;99.90;;;;;;5067603;28;20418;-75
2023/03/21 03:32:53;;;;;;;4.82;2.80;;;9.20;99.90;;;;;;5053019;28;20415;-75
2023/03/21 03:35:22;;;;;;;7.70;3.00;;;9.20;99.90;;;;;;5068300;28;20422;-75
2023/03/21 03:37:59;;;;;;;4.78;2.85;;;9.20;99.90;;;;;;5069662;28;20475;-75
2023/03/21 03:40:39;;;;;;;3.55;2.67;;;9.20;99.90;;;;;;5070181;28;20704;-76
2023/03/21 03:43:14;;;;;;;6.13;2.92;;;9.20;99.90;;;;;;5070195;28;20425;-76
2023/03/21 03:45:55;;;;;;;4.20;2.67;;;9.30;99.90;;;;;;5069622;28;20528;-76
2023/03/21 03:48:33;;;;;;;4.90;2.90;;;9.30;99.90;;;;;;5065515;28;20488;-75
2023/03/21 03:51:16;;;;;;;5.43;3.05;;;9.30;99.90;;;;;;5068713;28;20419;-75
2023/03/21 03:53:54;;;;;;;6.30;3.00;;;9.30;99.90;;;;;;5068548;28;20402;-75
2023/03/21 03:56:22;;;;;;;5.22;3.00;;;9.20;99.90;;;;;;5067401;28;20425;-76
2023/03/21 03:58:48;;;;;;;4.72;2.85;;;9.20;99.90;;;;;;5068586;28;20528;-75
2023/03/21 04:01:15;;;;;;;6.03;2.80;;;9.20;99.90;;;;;;5081638;28;20402;-76
2023/03/21 04:03:47;;;;;;;5.45;2.85;;;9.10;99.90;;;;;;5066342;28;20761;-75
2023/03/21 04:06:13;;;;;;;5.70;3.10;;;9.10;99.90;;;;;;5064712;28;20423;-75
2023/03/21 04:08:40;;;;;;;5.90;3.17;;;9.10;99.90;;;;;;5052313;28;20415;-75
2023/03/21 04:11:06;;;;;;;5.88;3.00;;;9.00;99.90;;;;;;5069740;28;20404;-75
2023/03/21 04:13:33;;;;;;;6.22;3.10;;;9.10;99.90;;;;;;5070897;28;20412;-75
2023/03/21 04:16:00;;;;;;;6.50;3.37;;;9.10;99.90;;;;;;5068986;28;20435;-75
2023/03/21 04:18:26;;;;;;;5.65;3.30;;;9.20;99.90;;;;;;5072388;28;22157;-76
2023/03/21 04:20:52;;;;;;;5.60;3.00;;;9.20;99.90;;;;;;5077363;28;20491;-75
2023/03/21 04:23:19;;;;;;;5.00;3.17;;;9.20;99.90;;;;;;5072446;28;20461;-76
2023/03/21 04:25:46;;;;;;;5.47;3.22;;;9.20;99.90;;;;;;5075261;28;20410;-75
2023/03/21 04:28:12;;;;;;;7.30;3.30;;;9.10;99.90;;;;;;5078066;28;20420;-76
2023/03/21 04:30:40;;;;;;;5.47;3.35;;;9.20;99.90;;;;;;5074034;28;20437;-75
2023/03/21 04:33:07;;;;;;;6.45;3.40;;;9.20;99.90;;;;;;5072953;28;20411;-75
2023/03/21 04:35:35;;;;;;;7.38;3.42;;;9.30;99.90;;;;;;5102347;27;20408;-75
2023/03/21 04:38:01;;;;;;;5.97;3.38;;;9.30;99.90;;;;;;5095885;28;20536;-75
2023/03/21 04:40:27;;;;;;;6.88;3.40;;;9.30;99.90;;;;;;5075257;28;20760;-76
2023/03/21 04:42:54;;;;;;;6.50;3.30;;;9.30;99.90;;;;;;5059230;28;20435;-75
2023/03/21 04:45:20;;;;;;;5.97;3.15;;;9.30;99.90;;;;;;5076508;28;20427;-75
2023/03/21 04:47:47;;;;;;;7.20;3.45;;;9.30;99.90;;;;;;5074674;28;20435;-75
2023/03/21 04:50:14;;;;;;;7.40;3.60;;;9.40;99.90;;;;;;5073942;28;20846;-75
2023/03/21 04:52:40;;;;;;;5.75;3.58;;;9.40;99.90;;;;;;5072007;28;20501;-76
2023/03/21 04:55:08;;;;;;;6.60;3.58;;;9.50;99.90;;;;;;5080559;28;20406;-76
2023/03/21 04:57:38;;;;;;;5.23;3.40;;;9.50;99.90;;;;;;5072835;28;20456;-75
2023/03/21 05:00:13;;;;;;;6.03;3.33;;;9.50;99.90;;;;;;5068934;28;20766;-75
2023/03/21 05:02:39;;;;;;;7.22;3.78;;;9.50;99.90;;;;;;5087288;27;20415;-76
2023/03/21 05:05:09;;;;;;;6.57;3.45;;;9.50;99.90;;;;;;5069647;28;20428;-75
2023/03/21 05:07:38;;;;;;;7.75;3.80;;;9.60;99.90;;;;;;5075693;28;20403;-75
2023/03/21 05:10:08;;;;;;;6.65;3.92;;;9.60;99.90;;;;;;5082222;28;20412;-75
2023/03/21 05:12:34;;;;;;;5.80;3.60;;;9.60;99.90;;;;;;5073326;28;20419;-76
2023/03/21 05:15:00;;;;;;;5.22;3.40;;;9.70;99.90;;;;;;5074090;28;20498;-75
2023/03/21 05:17:27;;;;;;;4.63;3.22;;;9.70;99.90;;;;;;5072591;28;20538;-75
2023/03/21 05:19:55;;;;;;;6.20;3.30;;;9.80;99.90;;;;;;5075886;28;20417;-75
2023/03/21 05:22:25;;;;;;;5.93;3.60;;;9.90;99.90;;;;;;5071712;28;20406;-75
2023/03/21 05:24:54;;;;;;;5.82;3.50;;;10.00;99.90;;;;;;5074627;28;20423;-76
2023/03/21 05:27:34;;;;;;;5.45;3.53;;;10.10;99.90;;;;;;5071490;28;21048;-75
2023/03/21 05:30:14;;;;;;;4.78;3.60;;;10.20;99.90;;;;;;5074140;28;20406;-75
2023/03/21 05:32:40;;;;;;;6.72;3.70;;;10.30;99.90;;;;;;5103305;27;20480;-76
2023/03/21 05:35:08;;;;;;;6.55;3.65;;;10.50;99.90;;;;;;5073226;28;20437;-76
2023/03/21 05:37:34;;;;;;;5.60;3.50;;;10.50;99.90;;;;;;5075157;28;20810;-76
2023/03/21 05:40:03;;;;;;;5.20;3.40;;;10.60;99.90;;;;;;5070717;28;20445;-75
2023/03/21 05:42:29;;;;;;;4.70;3.80;;;10.60;99.90;;;;;;5072290;28;20743;-75
2023/03/21 05:44:56;;;;;;;4.70;3.53;;;10.70;99.90;;;;;;5068538;28;20783;-75
2023/03/21 05:47:23;;;;;;;4.45;3.58;;;10.70;99.90;;;;;;5074263;28;20417;-75
2023/03/21 05:49:49;;;;;;;5.72;3.65;;;10.70;99.90;;;;;;5073396;28;20403;-75
2023/03/21 05:52:16;;;;;;;6.88;3.80;;;10.80;99.90;;;;;;5079236;28;20770;-75
2023/03/21 05:54:42;;;;;;;6.63;3.70;;;10.80;99.90;;;;;;5073528;28;20411;-76
2023/03/21 05:57:09;;;;;;;6.13;3.97;;;10.90;99.90;;;;;;5053332;28;20410;-75
2023/03/21 05:59:36;;;;;;;6.33;4.00;;;11.00;99.90;;;;;;5087872;27;20418;-75
2023/03/21 06:02:02;;;;;;;5.70;4.10;;;11.10;99.90;;;;;;5071297;28;20409;-76
2023/03/21 06:04:29;;;;;;;6.43;3.72;;;11.20;99.90;;;;;;5075769;28;20848;-75
2023/03/21 06:06:56;;;;;;;6.77;3.90;;;11.20;99.90;;;;;;5066899;28;20889;-75
2023/03/21 06:09:23;;;;;;;6.72;4.20;;;11.20;99.90;;;;;;5055767;28;20436;-76
2023/03/21 06:11:54;;;;;;;7.63;4.20;;;11.20;99.90;;;;;;5070888;28;20409;-75
2023/03/21 06:14:21;;;;;;;7.70;4.18;;;11.30;99.90;;;;;;5065572;28;21108;-75
2023/03/21 06:16:47;;;;;;;8.52;4.10;;;11.30;99.90;;;;;;5068030;28;20408;-75
2023/03/21 06:19:14;;;;;;;6.72;3.88;;;11.20;99.90;;;;;;5101146;27;20399;-76
2023/03/21 06:21:40;;;;;;;5.88;3.55;;;11.20;99.90;;;;;;5066030;28;20409;-75
2023/03/21 06:24:07;;;;;;;7.22;3.70;;;11.30;99.90;;;;;;5053080;28;20411;-75
2023/03/21 06:26:33;;;;;;;7.40;3.88;;;11.40;99.90;;;;;;5076940;28;21040;-75
2023/03/21 06:29:00;;;;;;;7.45;3.92;;;11.40;99.90;;;;;;5070204;28;20423;-76
2023/03/21 06:31:26;;;;;;;7.80;4.20;;;11.40;99.90;;;;;;5054870;28;20516;-76
2023/03/21 06:33:52;;;;;;;9.60;3.95;;;11.40;99.90;;;;;;5070926;28;20406;-76
2023/03/21 06:36:20;;;;;;;7.85;3.95;;;11.50;99.90;;;;;;5066976;28;20485;-75
2023/03/21 06:38:47;;;;;;;7.30;3.60;;;11.60;99.90;;;;;;5070005;28;20415;-75
2023/03/21 06:41:15;;;;;;;8.15;3.60;;;11.60;99.90;;;;;;5097230;27;20462;-75
2023/03/21 06:43:42;;;;;;;6.32;3.50;;;11.60;99.90;;;;;;5098692;27;20815;-75
2023/03/21 06:46:09;;;;;;;10.05;3.70;;;11.50;99.90;;;;;;5048536;28;20562;-75
2023/03/21 06:48:36;;;;;;;6.47;3.40;;;11.30;99.90;;;;;;5064549;28;20416;-75
2023/03/21 06:51:03;;;;;;;8.52;3.95;;;11.30;99.90;;;;;;5069838;28;20504;-76
2023/03/21 06:53:31;;;;;;;7.45;3.80;;;11.30;99.90;;;;;;5069033;28;20474;-75
2023/03/21 06:55:57;;;;;;;4.90;3.20;;;11.30;99.90;;;;;;5070612;28;20414;-75
2023/03/21 06:58:24;;;;;;;6.57;3.47;;;11.60;99.90;;;;;;5076319;28;20460;-75
2023/03/21 07:00:50;;;;;;;7.18;3.13;;;11.50;99.90;;;;;;5100631;27;20420;-76
2023/03/21 07:03:18;;;;;;;5.43;3.07;;;11.50;99.90;;;;;;5068101;28;20496;-75
2023/03/21 07:05:44;;;;;;;7.18;3.42;;;11.50;99.90;;;;;;5072910;28;22424;-76
2023/03/21 07:08:11;;;;;;;7.40;3.42;;;11.60;99.90;;;;;;5055230;28;20905;-75
2023/03/21 07:10:45;;;;;;;8.73;3.42;;;11.70;99.90;;;;;;5072614;28;20434;-75
2023/03/21 07:13:12;;;;;;;8.32;3.58;;;12.10;99.90;;;;;;5058074;28;20415;-76
2023/03/21 07:15:40;;;;;;;7.13;3.90;;;12.00;99.90;;;;;;5073157;28;20445;-76
2023/03/21 07:18:09;;;;;;;7.43;4.00;;;12.10;99.90;;;;;;5059433;28;20453;-75
2023/03/21 07:20:39;;;;;;;7.00;3.73;;;12.20;99.90;;;;;;5074422;28;20469;-75
2023/03/21 07:23:06;;;;;;;7.30;3.80;;;12.50;99.90;;;;;;5099727;27;20410;-75
2023/03/21 07:25:33;;;;;;;7.95;3.65;;;12.60;99.90;;;;;;5069090;28;20422;-75
2023/03/21 07:27:59;;;;;;;8.88;3.45;;;12.70;99.90;;;;;;5070188;28;20418;-76
2023/03/21 07:30:26;;;;;;;8.40;3.60;;;12.70;99.90;;;;;;5071453;28;20669;-75
2023/03/21 07:32:53;;;;;;;6.10;3.30;;;12.50;99.90;;;;;;5096734;27;20405;-75
2023/03/21 07:35:20;;;;;;;7.00;3.38;;;12.60;99.90;;;;;;5079704;28;20399;-76
2023/03/21 07:37:46;;;;;;;6.55;3.50;;;12.60;99.90;;;;;;5068857;28;20999;-76
2023/03/21 07:40:13;;;;;;;6.47;3.50;;;12.90;99.90;;;;;;5065595;28;20415;-75
2023/03/21 07:42:40;;;;;;;7.28;3.40;;;13.20;99.90;;;;;;5066431;28;20471;-76
2023/03/21 07:45:08;;;;;;;8.35;3.40;;;13.40;99.90;;;;;;5085740;28;20415;-75
2023/03/21 07:47:35;;;;;;;10.10;3.42;;;13.20;99.90;;;;;;5069332;28;20733;-75
2023/03/21 07:50:03;;;;;;;5.93;3.00;;;12.90;99.90;;;;;;5066458;28;20465;-76
2023/03/21 07:52:30;;;;;;;6.68;3.20;;;13.00;99.90;;;;;;5086342;28;20805;-75
2023/03/21 07:54:56;;;;;;;5.82;2.90;;;13.40;99.90;;;;;;5065078;28;20406;-76
2023/03/21 07:57:22;;;;;;;5.47;2.88;;;13.40;99.90;;;;;;5071602;28;20909;-75
2023/03/21 07:59:50;;;;;;;5.18;2.50;;;13.60;99.90;;;;;;5072164;28;20423;-75
2023/03/21 08:02:18;;;;;;;6.53;2.73;;;13.30;99.90;;;;;;5061053;28;20479;-75
2023/03/21 08:04:44;;;;;;;5.13;2.35;;;13.10;99.90;;;;;;5055366;28;20547;-75
2023/03/21 08:07:11;;;;;;;6.00;3.00;;;13.00;99.90;;;;;;5062789;28;20417;-75
2023/03/21 08:09:37;;;;;;;4.82;2.83;;;13.30;99.90;;;;;;5095095;28;20462;-76
2023/03/21 08:12:07;;;;;;;7.60;2.63;;;13.50;99.90;;;;;;5063729;28;20408;-75
2023/03/21 08:14:34;;;;;;;7.93;2.30;;;13.80;99.90;;;;;;5054376;28;20404;-75
2023/03/21 08:17:01;;;;;;;4.50;2.30;;;14.40;99.90;;;;;;5068657;28;21176;-75
2023/03/21 08:19:27;;;;;;;5.33;2.30;;;14.60;99.90;;;;;;5074886;28;20400;-76
2023/03/21 08:21:53;;;;;;;5.65;2.15;;;14.70;99.90;;;;;;5068626;28;20414;-75
2023/03/21 08:24:20;;;;;;;5.05;2.28;;;15.00;99.90;;;;;;5075201;28;21022;-75
2023/03/21 08:26:46;;;;;;;5.17;2.30;;;15.00;99.90;;;;;;5068952;28;20451;-75
2023/03/21 08:29:13;;;;;;;6.32;2.38;;;14.80;99.90;;;;;;5072045;28;20431;-75
2023/03/21 08:31:40;;;;;;;8.07;2.50;;;14.40;99.90;;;;;;5065890;28;20502;-75
2023/03/21 08:34:07;;;;;;;4.45;2.05;;;14.70;99.90;;;;;;5065230;28;20422;-75
2023/03/21 08:36:36;;;;;;;4.37;2.20;;;14.70;99.90;;;;;;5103070;27;20482;-76
2023/03/21 08:39:04;;;;;;;8.70;2.40;;;14.50;99.90;;;;;;5069676;28;20500;-76
2023/03/21 08:41:36;;;;;;;5.55;1.83;;;14.70;99.90;;;;;;5095935;28;20501;-75
2023/03/21 08:44:05;;;;;;;6.93;1.90;;;14.70;99.90;;;;;;5068951;28;21272;-75
2023/03/21 08:46:32;;;;;;;3.92;1.83;;;15.00;99.90;;;;;;5069906;28;20982;-75
2023/03/21 08:48:58;;;;;;;4.05;1.83;;;14.70;99.90;;;;;;5081256;28;20411;-76
2023/03/21 08:51:25;;;;;;;5.63;1.90;;;14.70;99.90;;;;;;5067731;28;20437;-75
2023/03/21 08:53:51;;;;;;;5.10;2.30;;;14.40;99.90;;;;;;5072565;28;20435;-75
2023/03/21 08:56:18;;;;;;;4.72;2.00;;;14.80;99.90;;;;;;5066236;28;20418;-75
2023/03/21 08:58:44;;;;;;;4.85;1.90;;;15.00;99.90;;;;;;5072081;28;20459;-75
2023/03/21 09:01:14;;;;;;;3.05;1.95;;;14.90;99.90;;;;;;5077620;28;20480;-75
2023/03/21 09:03:42;;;;;;;4.43;1.90;;;15.10;99.90;;;;;;5076089;28;20502;-75
2023/03/21 09:06:13;;;;;;;8.20;2.38;;;15.10;99.90;;;;;;5091517;27;20939;-75
2023/03/21 09:08:45;;;;;;;5.63;2.20;;;15.40;99.90;;;;;;5071596;28;20410;-75
2023/03/21 09:11:11;;;;;;;3.63;1.93;;;15.50;99.90;;;;;;5071990;28;20411;-75
2023/03/21 09:13:37;;;;;;;4.88;2.03;;;15.40;99.90;;;;;;5072600;28;20427;-75
2023/03/21 09:16:04;;;;;;;7.43;2.50;;;15.20;99.90;;;;;;5074087;28;20405;-75
2023/03/21 09:18:47;;;;;;;3.45;2.10;;;15.70;99.90;;;;;;5076944;28;20448;-76
2023/03/21 09:21:17;;;;;;;4.75;2.08;;;15.60;99.90;;;;;;5073901;28;20405;-75
2023/03/21 09:23:43;;;;;;;4.87;2.10;;;15.90;99.90;;;;;;5073495;28;20419;-75
2023/03/21 09:26:11;;;;;;;5.20;2.22;;;16.00;99.90;;;;;;5080755;28;20547;-75
2023/03/21 09:28:39;;;;;;;5.05;2.00;;;16.10;99.90;;;;;;5056526;28;20441;-76
2023/03/21 09:31:10;;;;;;;5.30;2.40;;;15.80;99.90;;;;;;5075366;28;20445;-75
2023/03/21 09:33:39;;;;;;;5.20;2.07;;;16.10;99.90;;;;;;5073592;28;20459;-75
2023/03/21 09:36:12;;;;;;;6.47;2.20;;;16.40;99.90;;;;;;5073020;28;20430;-76
2023/03/21 09:38:41;;;;;;;7.55;2.35;;;16.60;99.90;;;;;;5072926;28;20415;-76
2023/03/21 09:41:26;;;;;;;6.63;2.60;;;16.90;99.90;;;;;;5079500;28;20402;-75
2023/03/21 09:44:23;;;;;;;5.65;2.55;;;16.90;99.90;;;;;;5072826;28;20414;-75
2023/03/21 09:46:50;;;;;;;7.68;2.63;;;16.70;99.90;;;;;;5093987;27;21429;-76
2023/03/21 09:49:30;;;;;;;7.03;2.50;;;16.50;99.90;;;;;;5081413;28;20460;-75
2023/03/21 09:52:04;;;;;;;5.97;2.60;;;17.50;99.90;;;;;;5077407;28;20503;-75
2023/03/21 09:54:43;;;;;;;7.57;2.20;;;18.10;99.90;;;;;;5076933;28;20754;-76
2023/03/21 09:57:31;;;;;;;6.93;2.30;;;18.20;99.90;;;;;;5063897;28;20530;-75
2023/03/21 10:00:08;;;;;;;6.90;2.50;;;18.10;99.90;;;;;;5078274;28;20418;-75
2023/03/21 10:02:45;;;;;;;6.95;2.15;;;18.30;99.90;;;;;;5078853;28;20418;-75
2023/03/21 10:05:23;;;;;;;7.15;2.20;;;18.50;99.90;;;;;;5052764;28;20423;-75
2023/03/21 10:08:08;;;;;;;8.30;2.70;;;18.80;99.90;;;;;;5073193;28;20424;-75
2023/03/21 10:10:48;;;;;;;9.38;3.10;;;18.90;99.90;;;;;;5073221;28;20416;-75
2023/03/21 10:13:25;;;;;;;8.43;3.22;;;18.80;99.90;;;;;;5075275;28;20427;-75
2023/03/21 10:16:00;;;;;;;9.05;3.33;;;18.90;99.90;;;;;;5072343;28;20419;-75
2023/03/21 10:18:30;;;;;;;8.53;3.20;;;18.70;99.90;;;;;;5072988;28;20836;-76
2023/03/21 10:20:57;;;;;;;6.70;3.15;;;18.00;99.90;;;;;;5074088;28;20755;-75
2023/03/21 10:23:28;;;;;;;9.93;3.13;;;17.90;99.90;;;;;;5073108;28;20419;-76
2023/03/21 10:26:02;;;;;;;7.43;3.05;;;17.70;99.90;;;;;;5075694;28;20411;-75
2023/03/21 10:28:36;;;;;;;7.80;3.10;;;17.80;99.90;;;;;;5082533;28;20420;-76
2023/03/21 10:31:16;;;;;;;7.03;2.93;;;17.70;99.90;;;;;;5072108;28;20585;-75
2023/03/21 10:33:47;;;;;;;18.53;3.50;;;17.40;99.90;;;;;;5071695;28;20405;-75
2023/03/21 10:36:25;;;;;;;7.60;2.80;;;17.70;99.90;;;;;;5072022;28;20415;-75
2023/03/21 10:39:04;;;;;;;7.60;2.53;;;17.70;99.90;;;;;;5072830;28;20418;-76
2023/03/21 10:41:32;;;;;;;9.55;2.92;;;17.80;99.90;;;;;;5072972;28;20414;-75
2023/03/21 10:44:15;;;;;;;12.45;3.10;;;17.80;99.90;;;;;;5076498;28;20411;-76
2023/03/21 10:46:56;;;;;;;7.90;3.17;;;17.60;99.90;;;;;;5071478;28;20481;-76
2023/03/21 10:49:24;;;;;;;9.32;3.13;;;17.70;99.90;;;;;;5075202;28;20423;-76
2023/03/21 10:51:56;;;;;;;7.72;2.70;;;17.80;99.90;;;;;;5075804;28;20478;-76
2023/03/21 10:54:29;;;;;;;6.93;2.70;;;17.90;99.90;;;;;;5056493;28;20413;-75
2023/03/21 10:57:01;;;;;;;6.13;2.50;;;18.10;99.90;;;;;;5068510;28;20419;-76
2023/03/21 10:59:37;;;;;;;5.85;2.40;;;18.10;99.90;;;;;;5072120;28;21150;-76
2023/03/21 11:02:05;;;;;;;6.55;2.30;;;18.20;99.90;;;;;;5070798;28;21161;-76
2023/03/21 11:04:32;;;;;;;6.28;2.38;;;18.10;99.90;;;;;;5053345;28;20414;-76
2023/03/21 11:07:08;;;;;;;4.47;2.33;;;18.00;99.90;;;;;;5069310;28;21007;-76
2023/03/21 11:09:56;;;;;;;4.90;2.30;;;17.40;99.90;;;;;;5066844;28;20775;-76
2023/03/21 11:12:39;;;;;;;4.35;2.22;;;17.40;99.90;;;;;;5100363;27;20412;-76
2023/03/21 11:15:35;;;;;;;7.28;2.20;;;17.60;99.90;;;;;;5064729;28;20418;-76
2023/03/21 11:18:18;;;;;;;6.43;2.30;;;17.90;99.90;;;;;;5076369;27;20833;-76
2023/03/21 11:21:01;;;;;;;6.68;2.35;;;18.00;99.90;;;;;;5063799;28;20403;-76
2023/03/21 11:23:34;;;;;;;5.37;2.37;;;17.80;99.90;;;;;;5066999;28;20524;-76
2023/03/21 11:26:07;;;;;;;6.17;2.33;;;17.30;99.90;;;;;;5066806;28;20462;-77
2023/03/21 11:28:39;;;;;;;5.43;2.35;;;17.60;99.90;;;;;;5070450;28;20450;-76
2023/03/21 11:31:10;;;;;;;6.13;2.50;;;17.80;99.90;;;;;;5072724;28;21085;-77
2023/03/21 11:33:52;;;;;;;6.95;2.40;;;16.90;99.90;;;;;;5070423;28;20994;-76
2023/03/21 11:36:19;;;;;;;6.78;2.30;;;16.70;99.90;;;;;;5069645;28;20498;-76
2023/03/21 11:39:23;;;;;;;5.07;2.40;;;17.30;99.90;;;;;;5087055;27;20413;-76
2023/03/21 11:41:51;;;;;;;6.00;2.28;;;17.50;99.90;;;;;;5068914;28;20414;-76
2023/03/21 11:44:40;;;;;;;5.72;2.15;;;17.70;99.90;;;;;;5072584;28;20445;-77
2023/03/21 11:47:10;;;;;;;7.40;2.60;;;17.80;99.90;;;;;;5071593;28;20419;-76
2023/03/21 11:49:36;;;;;;;6.78;2.38;;;17.90;99.90;;;;;;5068686;28;20420;-76
2023/03/21 11:52:37;;;;;;;5.93;2.22;;;17.80;99.90;;;;;;5067704;28;20656;-75
2023/03/21 11:55:31;;;;;;;9.40;2.50;;;17.20;99.90;;;;;;5066797;28;20425;-76
2023/03/21 11:58:37;;;;;;;5.82;2.13;;;17.10;99.90;;;;;;5065727;28;20420;-77
2023/03/21 12:01:29;;;;;;;4.85;2.20;;;17.30;99.90;;;;;;5073930;28;20410;-76
2023/03/21 12:03:55;;;;;;;6.40;2.15;;;16.90;99.90;;;;;;5071451;28;20457;-76
2023/03/21 12:07:05;;;;;;;3.75;2.03;;;17.20;99.90;;;;;;5070794;28;20412;-76
2023/03/21 12:10:00;;;;;;;4.57;2.10;;;16.90;99.90;;;;;;5038333;28;20899;-76
2023/03/21 12:13:03;;;;;;;3.55;2.05;;;16.20;99.90;;;;;;5058322;28;20502;-76
2023/03/21 12:16:25;;;;;;;6.32;2.42;;;16.00;99.90;;;;;;5071279;28;20447;-76
2023/03/21 12:19:28;;;;;;;7.32;2.38;;;17.10;99.90;;;;;;5078623;28;20404;-75
2023/03/21 12:22:10;;;;;;;6.47;2.70;;;17.30;99.90;;;;;;5051570;28;20508;-76
2023/03/21 12:24:54;;;;;;;4.90;2.45;;;17.20;99.90;;;;;;5075463;28;20416;-76
2023/03/21 12:27:45;;;;;;;4.57;2.35;;;17.20;99.90;;;;;;5071572;28;20413;-77
2023/03/21 12:30:32;;;;;;;7.55;2.50;;;16.70;99.90;;;;;;5073380;28;20416;-76
2023/03/21 12:33:22;;;;;;;6.00;2.50;;;16.90;99.90;;;;;;5081809;28;20410;-76
2023/03/21 12:36:24;;;;;;;7.65;2.60;;;17.00;99.90;;;;;;5109333;27;20578;-76
2023/03/21 12:39:07;;;;;;;4.53;2.45;;;17.10;99.90;;;;;;5078482;28;20419;-76
2023/03/21 12:42:13;;;;;;;4.77;2.30;;;16.50;99.90;;;;;;5058595;28;20423;-76
2023/03/21 12:44:56;;;;;;;5.47;2.35;;;16.30;99.90;;;;;;5076479;28;20414;-76
2023/03/21 12:47:28;;;;;;;3.92;2.22;;;16.20;99.90;;;;;;5091790;27;20502;-76
2023/03/21 12:50:26;;;;;;;5.95;2.47;;;16.80;99.90;;;;;;5075053;28;20437;-76
2023/03/21 12:53:07;;;;;;;9.10;2.60;;;17.00;99.90;;;;;;5059621;28;20415;-76
2023/03/21 12:55:34;;;;;;;6.90;2.70;;;17.10;99.90;;;;;;5072170;28;21058;-76
2023/03/21 12:58:13;;;;;;;4.72;2.20;;;17.10;99.90;;;;;;5077340;28;21006;-76
2023/03/21 13:01:03;;;;;;;6.30;2.33;;;17.00;99.90;;;;;;5098900;27;20998;-76
2023/03/21 13:03:44;;;;;;;7.18;2.40;;;17.00;99.90;;;;;;5070901;28;20421;-76
2023/03/21 13:06:17;;;;;;;7.03;2.60;;;16.70;99.90;;;;;;5067661;28;20419;-77
2023/03/21 13:09:40;;;;;;;6.75;2.28;;;16.80;99.90;;;;;;5070154;28;21247;-76
2023/03/21 13:13:00;;;;;;;4.85;2.00;;;16.70;99.90;;;;;;5057123;28;20490;-76
2023/03/21 13:15:43;;;;;;;4.13;1.98;;;16.70;99.90;;;;;;5040322;28;20408;-76
2023/03/21 13:18:34;;;;;;;4.47;2.10;;;16.40;99.90;;;;;;5069840;28;20405;-75
2023/03/21 13:21:39;;;;;;;3.72;1.83;;;16.20;99.90;;;;;;5073052;28;20936;-76
2023/03/21 13:24:36;;;;;;;5.45;1.90;;;16.40;99.90;;;;;;5069234;28;20494;-76
2023/03/21 13:27:28;;;;;;;3.40;1.98;;;16.30;99.90;;;;;;5073312;28;21075;-76